createdAt,value
2023-03-25T00:00:25.375Z,9.98
2023-03-25T00:02:52.836Z,9.96
2023-03-25T00:05:21.791Z,9.95
2023-03-25T00:07:51.971Z,9.77
2023-03-25T00:28:04.555Z,9.54
2023-03-25T00:30:31.312Z,9.51
2023-03-25T00:33:01.954Z,9.55
2023-03-25T00:35:29.300Z,9.57
2023-03-25T00:38:02.956Z,9.55
2023-03-25T00:40:34.972Z,9.56
2023-03-25T00:43:02.855Z,9.62
2023-03-25T00:45:29.681Z,9.58
2023-03-25T00:47:56.600Z,9.57
2023-03-25T00:50:23.370Z,9.61
2023-03-25T00:52:50.675Z,9.68
2023-03-25T00:55:17.668Z,9.71
2023-03-25T00:57:44.343Z,9.71
2023-03-25T01:00:14.439Z,9.71
2023-03-25T01:05:18.305Z,9.58
2023-03-25T01:07:45.638Z,9.62
2023-03-25T01:10:12.656Z,9.57
2023-03-25T01:12:39.288Z,9.57
2023-03-25T01:15:06.637Z,9.61
2023-03-25T01:17:33.359Z,9.56
2023-03-25T01:20:00.002Z,9.53
2023-03-25T01:22:26.667Z,9.50
2023-03-25T01:24:53.294Z,9.50
2023-03-25T01:27:19.915Z,9.49
2023-03-25T01:29:46.525Z,9.49
2023-03-25T01:32:13.220Z,9.51
2023-03-25T01:34:40.176Z,9.52
2023-03-25T01:39:46.028Z,9.47
2023-03-25T01:42:12.776Z,9.40
2023-03-25T01:44:39.398Z,9.44
2023-03-25T01:49:44.723Z,9.51
2023-03-25T01:52:16.994Z,9.35
2023-03-25T01:54:45.719Z,9.44
2023-03-25T01:57:17.948Z,9.44
2023-03-25T01:59:44.842Z,9.44
2023-03-25T02:02:15.893Z,9.45
2023-03-25T02:04:59.320Z,9.36
2023-03-25T02:07:31.172Z,9.33
2023-03-25T02:10:04.946Z,9.35
2023-03-25T02:12:31.679Z,9.35
2023-03-25T02:15:02.562Z,9.28
2023-03-25T02:17:53.004Z,9.37
2023-03-25T02:20:58.066Z,9.38
2023-03-25T02:23:28.718Z,9.35
2023-03-25T02:26:33.440Z,9.34
2023-03-25T02:29:17.484Z,9.40
2023-03-25T02:31:58.931Z,9.36
2023-03-25T02:34:31.716Z,9.44
2023-03-25T02:37:23.026Z,9.48
2023-03-25T02:40:01.108Z,9.48
2023-03-25T02:42:37.320Z,9.46
2023-03-25T02:45:36.200Z,9.39
2023-03-25T02:48:08.561Z,9.38
2023-03-25T02:50:43.930Z,9.34
2023-03-25T02:53:15.559Z,9.37
2023-03-25T02:55:44.883Z,9.24
2023-03-25T02:58:16.892Z,8.56
2023-03-25T03:00:44.938Z,8.10
2023-03-25T03:03:12.040Z,7.77
2023-03-25T03:08:50.803Z,7.77
2023-03-25T03:11:23.201Z,7.71
2023-03-25T03:14:07.804Z,7.79
2023-03-25T03:17:09.854Z,7.73
2023-03-25T03:19:39.936Z,7.68
2023-03-25T03:22:34.521Z,7.75
2023-03-25T03:25:16.247Z,7.69
2023-03-25T03:27:51.932Z,7.79
2023-03-25T03:30:30.111Z,7.81
2023-03-25T03:33:10.076Z,7.81
2023-03-25T03:35:43.369Z,7.88
2023-03-25T03:38:13.827Z,7.86
2023-03-25T03:40:44.840Z,7.83
2023-03-25T03:43:18.718Z,7.99
2023-03-25T03:45:51.900Z,7.93
2023-03-25T03:48:27.132Z,7.96
2023-03-25T04:07:19.764Z,8.09
2023-03-25T04:10:08.660Z,8.19
2023-03-25T04:12:45.895Z,8.20
2023-03-25T04:15:19.060Z,8.21
2023-03-25T04:17:51.809Z,8.23
2023-03-25T04:20:29.993Z,8.22
2023-03-25T04:23:10.012Z,8.19
2023-03-25T04:25:43.807Z,8.19
2023-03-25T04:28:18.319Z,8.14
2023-03-25T04:30:55.851Z,8.23
2023-03-25T04:33:32.346Z,8.16
2023-03-25T04:36:06.942Z,8.17
2023-03-25T04:38:40.864Z,8.18
2023-03-25T04:41:14.140Z,8.10
2023-03-25T04:43:46.951Z,8.16
2023-03-25T04:46:20.086Z,8.16
2023-03-25T04:48:53.961Z,8.14
2023-03-25T04:51:27.229Z,8.27
2023-03-25T04:53:59.949Z,8.17
2023-03-25T04:56:32.661Z,8.19
2023-03-25T04:59:05.424Z,8.09
2023-03-25T05:04:20.710Z,8.00
2023-03-25T05:06:53.710Z,7.99
2023-03-25T05:09:26.507Z,8.08
2023-03-25T05:11:59.300Z,7.94
2023-03-25T05:14:32.077Z,7.91
2023-03-25T05:17:04.820Z,7.94
2023-03-25T05:19:37.595Z,7.97
2023-03-25T05:22:11.105Z,8.07
2023-03-25T05:24:45.403Z,8.02
2023-03-25T05:27:20.375Z,7.99
2023-03-25T05:29:54.272Z,8.01
2023-03-25T05:32:33.633Z,8.04
2023-03-25T05:35:07.036Z,7.97
2023-03-25T05:37:39.774Z,8.05
2023-03-25T05:40:14.680Z,8.14
2023-03-25T05:42:49.246Z,8.22
2023-03-25T05:45:22.992Z,8.28
2023-03-25T05:47:55.811Z,8.29
2023-03-25T05:50:29.102Z,8.15
2023-03-25T05:55:33.066Z,8.24
2023-03-25T05:58:05.494Z,8.19
2023-03-25T06:00:32.622Z,8.23
2023-03-25T06:02:59.599Z,8.27
2023-03-25T06:05:26.417Z,8.33
2023-03-25T06:10:34.602Z,8.37
2023-03-25T06:13:01.221Z,8.46
2023-03-25T06:15:33.873Z,8.38
2023-03-25T06:18:00.836Z,8.33
2023-03-25T06:20:27.711Z,8.38
2023-03-25T06:22:54.347Z,8.40
2023-03-25T06:25:21.415Z,8.48
2023-03-25T06:27:50.154Z,8.47
2023-03-25T06:30:21.934Z,8.50
2023-03-25T06:32:51.069Z,8.43
2023-03-25T06:35:20.515Z,8.48
2023-03-25T06:37:49.048Z,8.52
2023-03-25T06:40:16.269Z,8.58
2023-03-25T06:42:43.010Z,8.51
2023-03-25T06:45:10.565Z,8.59
2023-03-25T06:47:37.340Z,8.62
2023-03-25T06:50:04.638Z,8.72
2023-03-25T06:52:31.291Z,8.74
2023-03-25T06:54:57.949Z,8.90
2023-03-25T06:57:24.654Z,8.94
2023-03-25T06:59:51.464Z,8.90
2023-03-25T07:02:18.190Z,8.89
2023-03-25T07:04:44.894Z,8.92
2023-03-25T07:07:11.620Z,8.98
2023-03-25T07:09:38.319Z,9.11
2023-03-25T07:12:08.387Z,9.18
2023-03-25T07:14:35.672Z,9.25
2023-03-25T07:17:02.323Z,9.51
2023-03-25T07:19:28.952Z,9.91
2023-03-25T07:21:55.807Z,9.99
2023-03-25T07:24:22.528Z,10.07
2023-03-25T07:26:49.133Z,9.89
2023-03-25T07:29:15.919Z,9.83
2023-03-25T07:31:42.630Z,9.65
2023-03-25T07:34:09.404Z,9.59
2023-03-25T07:36:36.225Z,9.56
2023-03-25T07:39:03.273Z,9.53
2023-03-25T07:41:29.899Z,9.48
2023-03-25T07:43:56.553Z,9.53
2023-03-25T07:46:23.383Z,9.50
2023-03-25T07:48:50.436Z,9.77
2023-03-25T07:51:17.164Z,10.08
2023-03-25T07:53:44.883Z,10.18
2023-03-25T07:56:12.445Z,10.16
2023-03-25T07:58:39.480Z,10.20
2023-03-25T08:01:06.563Z,10.49
2023-03-25T08:03:33.783Z,10.59
2023-03-25T08:06:02.333Z,10.88
2023-03-25T08:08:32.528Z,11.34
2023-03-25T08:10:59.459Z,11.20
2023-03-25T08:13:26.305Z,11.11
2023-03-25T08:15:53.864Z,10.96
2023-03-25T08:18:20.919Z,10.93
2023-03-25T08:23:22.645Z,10.75
2023-03-25T08:25:51.366Z,10.59
2023-03-25T08:28:23.466Z,10.69
2023-03-25T08:30:56.949Z,10.76
2023-03-25T08:33:34.656Z,10.91
2023-03-25T08:36:02.045Z,10.78
2023-03-25T08:38:34.637Z,10.88
2023-03-25T08:41:01.921Z,10.65
2023-03-25T08:43:28.556Z,10.69
2023-03-25T08:45:55.342Z,10.69
2023-03-25T08:48:23.021Z,10.74
2023-03-25T08:50:49.674Z,10.75
2023-03-25T08:53:16.315Z,10.70
2023-03-25T08:55:42.929Z,10.57
2023-03-25T08:58:09.698Z,10.49
2023-03-25T09:00:38.008Z,10.39
2023-03-25T09:03:05.624Z,10.43
2023-03-25T09:05:32.253Z,10.38
2023-03-25T09:07:58.995Z,10.37
2023-03-25T09:10:25.706Z,10.24
2023-03-25T09:12:52.993Z,10.08
2023-03-25T09:15:19.865Z,9.92
2023-03-25T09:17:46.975Z,9.76
2023-03-25T09:20:13.808Z,9.59
2023-03-25T09:22:41.274Z,9.65
2023-03-25T09:25:08.921Z,10.28
2023-03-25T09:27:35.688Z,10.35
2023-03-25T09:30:03.659Z,10.35
2023-03-25T09:32:30.861Z,10.43
2023-03-25T09:34:57.519Z,10.24
2023-03-25T09:37:24.404Z,10.27
2023-03-25T09:39:51.120Z,10.29
2023-03-25T09:42:36.962Z,10.27
2023-03-25T09:45:31.507Z,10.16
2023-03-25T09:48:04.557Z,10.42
2023-03-25T09:50:35.195Z,10.86
2023-03-25T09:53:16.834Z,11.45
2023-03-25T09:55:46.909Z,11.66
2023-03-25T09:58:28.450Z,11.67
2023-03-25T10:01:19.782Z,11.53
2023-03-25T10:04:21.649Z,11.66
2023-03-25T10:07:12.709Z,11.53
2023-03-25T10:12:55.616Z,11.20
2023-03-25T10:18:37.037Z,12.15
2023-03-25T10:26:40.653Z,13.12
2023-03-25T10:29:13.297Z,12.98
2023-03-25T10:31:50.584Z,12.76
2023-03-25T10:34:19.806Z,12.93
2023-03-25T10:36:55.230Z,12.64
2023-03-25T10:39:23.713Z,12.50
2023-03-25T10:41:59.508Z,12.77
2023-03-25T10:44:27.614Z,12.83
2023-03-25T10:46:59.847Z,12.55
2023-03-25T10:49:30.894Z,12.22
2023-03-25T10:51:59.648Z,12.02
2023-03-25T10:54:35.028Z,11.75
2023-03-25T10:57:08.828Z,11.70
2023-03-25T10:59:49.975Z,11.60
2023-03-25T11:02:22.898Z,11.65
2023-03-25T11:04:55.119Z,11.62
2023-03-25T11:07:33.465Z,11.70
2023-03-25T11:10:28.565Z,11.74
2023-03-25T11:12:58.690Z,11.84
2023-03-25T11:15:29.406Z,11.97
2023-03-25T11:18:19.853Z,12.45
2023-03-25T11:20:53.462Z,13.11
2023-03-25T11:23:33.967Z,13.76
2023-03-25T11:26:08.509Z,13.63
2023-03-25T11:28:40.320Z,13.20
2023-03-25T11:31:16.335Z,13.03
2023-03-25T11:33:45.771Z,13.11
2023-03-25T11:36:20.624Z,13.82
2023-03-25T11:38:53.862Z,14.23
2023-03-25T11:41:20.684Z,14.87
2023-03-25T11:43:49.998Z,15.29
2023-03-25T11:46:21.253Z,15.43
2023-03-25T11:48:50.347Z,15.16
2023-03-25T11:51:28.431Z,15.75
2023-03-25T11:53:59.381Z,15.44
2023-03-25T11:56:38.598Z,14.88
2023-03-25T11:59:09.740Z,14.50
2023-03-25T12:01:46.377Z,13.89
2023-03-25T12:04:12.979Z,13.78
2023-03-25T12:07:08.781Z,13.55
2023-03-25T12:09:36.341Z,13.32
2023-03-25T12:12:22.043Z,13.22
2023-03-25T12:14:55.243Z,13.17
2023-03-25T12:17:40.839Z,13.23
2023-03-25T12:20:40.614Z,13.13
2023-03-25T12:23:36.915Z,13.31
2023-03-25T12:26:17.828Z,14.14
2023-03-25T12:29:13.314Z,13.95
2023-03-25T12:31:58.790Z,14.42
2023-03-25T12:34:40.466Z,14.51
2023-03-25T12:37:19.113Z,14.50
2023-03-25T12:39:54.232Z,14.23
2023-03-25T12:42:46.072Z,14.01
2023-03-25T12:45:43.528Z,13.79
2023-03-25T12:48:28.837Z,13.62
2023-03-25T12:51:07.441Z,13.45
2023-03-25T12:53:51.942Z,13.22
2023-03-25T12:56:24.207Z,12.82
2023-03-25T12:59:13.939Z,12.59
2023-03-25T13:01:50.999Z,12.57
2023-03-25T13:04:40.855Z,12.80
2023-03-25T13:07:17.403Z,13.13
2023-03-25T13:10:14.060Z,13.40
2023-03-25T13:12:58.710Z,13.91
2023-03-25T13:15:27.990Z,13.78
2023-03-25T13:18:04.299Z,13.92
2023-03-25T13:20:37.971Z,13.92
2023-03-25T13:23:08.063Z,13.66
2023-03-25T13:25:47.323Z,13.79
2023-03-25T13:28:20.426Z,13.77
2023-03-25T13:30:49.732Z,13.73
2023-03-25T13:33:20.277Z,13.52
2023-03-25T13:35:52.472Z,13.78
2023-03-25T13:38:43.247Z,13.89
2023-03-25T13:41:19.546Z,13.95
2023-03-25T13:44:07.391Z,13.84
2023-03-25T13:46:41.075Z,13.80
2023-03-25T13:49:30.517Z,13.92
2023-03-25T13:51:58.873Z,14.12
2023-03-25T13:54:48.463Z,14.23
2023-03-25T13:57:32.925Z,14.22
2023-03-25T14:00:14.903Z,14.31
2023-03-25T14:02:56.793Z,14.58
2023-03-25T14:05:35.256Z,14.49
2023-03-25T14:08:07.566Z,14.36
2023-03-25T14:11:12.679Z,13.82
2023-03-25T14:13:59.308Z,13.52
2023-03-25T14:16:33.678Z,13.33
2023-03-25T14:19:04.285Z,13.08
2023-03-25T14:21:37.103Z,12.78
2023-03-25T14:24:28.581Z,12.19
2023-03-25T14:27:01.325Z,11.58
2023-03-25T14:29:38.855Z,11.22
2023-03-25T14:32:17.780Z,11.25
2023-03-25T14:34:47.310Z,11.67
2023-03-25T14:37:29.014Z,11.92
2023-03-25T14:40:04.393Z,12.25
2023-03-25T14:42:42.716Z,12.46
2023-03-25T14:45:52.546Z,12.58
2023-03-25T14:48:30.832Z,12.68
2023-03-25T14:51:23.155Z,12.83
2023-03-25T14:54:02.374Z,12.97
2023-03-25T14:56:46.839Z,13.17
2023-03-25T14:59:18.743Z,13.20
2023-03-25T15:01:47.500Z,13.12
2023-03-25T15:04:18.270Z,13.16
2023-03-25T15:06:46.919Z,13.33
2023-03-25T15:09:17.623Z,13.08
2023-03-25T15:11:53.556Z,13.17
2023-03-25T15:17:01.231Z,13.52
2023-03-25T15:19:28.221Z,13.60
2023-03-25T15:24:36.785Z,13.37
2023-03-25T15:27:18.327Z,13.43
2023-03-25T15:30:22.000Z,13.51
2023-03-25T15:32:55.033Z,13.51
2023-03-25T15:35:47.789Z,13.46
2023-03-25T15:38:36.611Z,13.57
2023-03-25T15:41:35.934Z,13.57
2023-03-25T15:44:18.498Z,13.45
2023-03-25T15:47:13.599Z,13.23
2023-03-25T15:50:03.260Z,13.20
2023-03-25T15:52:55.796Z,13.32
2023-03-25T15:55:48.439Z,13.42
2023-03-25T15:58:25.815Z,13.58
2023-03-25T16:00:58.117Z,13.61
2023-03-25T16:03:29.343Z,13.59
2023-03-25T16:06:04.161Z,13.65
2023-03-25T16:08:36.517Z,13.69
2023-03-25T16:11:21.282Z,13.56
2023-03-25T16:14:00.849Z,13.62
2023-03-25T16:16:29.171Z,13.62
2023-03-25T16:18:56.284Z,13.53
2023-03-25T16:21:22.962Z,13.51
2023-03-25T16:23:53.555Z,13.44
2023-03-25T16:26:43.531Z,13.35
2023-03-25T16:29:21.011Z,13.40
2023-03-25T16:32:02.304Z,13.32
2023-03-25T16:34:35.591Z,13.10
2023-03-25T16:37:02.879Z,13.11
2023-03-25T16:39:33.370Z,12.94
2023-03-25T16:42:11.006Z,12.82
2023-03-25T16:44:38.163Z,12.78
2023-03-25T16:47:05.823Z,12.69
2023-03-25T16:49:38.652Z,12.73
2023-03-25T16:52:14.532Z,12.64
2023-03-25T16:55:15.473Z,12.54
2023-03-25T16:57:42.184Z,12.53
2023-03-25T17:00:19.691Z,12.49
2023-03-25T17:02:48.690Z,12.42
2023-03-25T17:05:27.049Z,12.31
2023-03-25T17:08:05.014Z,12.34
2023-03-25T17:10:46.948Z,12.34
2023-03-25T17:13:19.967Z,12.32
2023-03-25T17:15:49.356Z,12.34
2023-03-25T17:18:17.974Z,12.26
2023-03-25T17:20:47.141Z,12.31
2023-03-25T17:23:16.597Z,12.28
2023-03-25T17:25:53.864Z,12.16
2023-03-25T17:28:38.744Z,12.10
2023-03-25T17:31:38.223Z,12.16
2023-03-25T17:34:19.002Z,12.10
2023-03-25T17:36:48.524Z,12.01
2023-03-25T17:39:29.959Z,12.11
2023-03-25T17:42:01.719Z,12.11
2023-03-25T17:44:39.981Z,12.03
2023-03-25T17:47:08.263Z,12.00
2023-03-25T17:49:35.191Z,11.95
2023-03-25T17:52:03.078Z,11.98
2023-03-25T17:54:29.712Z,11.96
2023-03-25T17:56:56.568Z,11.86
2023-03-25T17:59:27.635Z,11.87
2023-03-25T18:01:54.372Z,11.90
2023-03-25T18:04:21.992Z,11.86
2023-03-25T18:06:49.669Z,11.81
2023-03-25T18:09:24.375Z,11.84
2023-03-25T18:11:53.914Z,11.83
2023-03-25T18:14:21.819Z,11.82
2023-03-25T18:19:31.350Z,11.79
2023-03-25T18:22:04.122Z,11.82
2023-03-25T18:24:36.922Z,11.81
2023-03-25T18:27:05.124Z,11.80
2023-03-25T18:29:32.084Z,11.78
2023-03-25T18:31:58.952Z,11.84
2023-03-25T18:34:26.295Z,11.81
2023-03-25T18:39:28.188Z,11.78
2023-03-25T18:41:54.864Z,11.71
2023-03-25T18:44:21.564Z,11.56
2023-03-25T18:46:48.305Z,11.63
2023-03-25T18:49:19.752Z,11.62
2023-03-25T18:51:50.027Z,11.49
2023-03-25T18:54:17.273Z,11.45
2023-03-25T18:56:44.343Z,11.45
2023-03-25T18:59:15.476Z,11.41
2023-03-25T19:01:42.711Z,11.38
2023-03-25T19:04:09.512Z,11.28
2023-03-25T19:06:39.232Z,11.21
2023-03-25T19:09:09.095Z,11.26
2023-03-25T19:11:36.054Z,11.23
2023-03-25T19:14:02.794Z,11.17
2023-03-25T19:16:29.520Z,11.18
2023-03-25T19:18:56.343Z,11.12
2023-03-25T19:21:23.069Z,11.03
2023-03-25T19:23:49.933Z,11.02
2023-03-25T19:26:16.587Z,10.95
2023-03-25T19:28:43.349Z,11.04
2023-03-25T19:31:12.392Z,10.99
2023-03-25T19:33:39.306Z,10.95
2023-03-25T19:36:06.306Z,10.94
2023-03-25T19:38:33.218Z,10.99
2023-03-25T19:41:08.533Z,10.90
2023-03-25T19:43:35.635Z,10.80
2023-03-25T19:46:03.078Z,10.77
2023-03-25T19:48:30.126Z,10.56
2023-03-25T19:50:57.497Z,10.55
2023-03-25T19:53:25.962Z,10.35
2023-03-25T19:55:53.212Z,10.35
2023-03-25T19:58:23.119Z,10.44
2023-03-25T20:00:50.222Z,10.34
2023-03-25T20:03:17.024Z,10.34
2023-03-25T20:05:43.804Z,10.38
2023-03-25T20:08:11.934Z,10.34
2023-03-25T20:10:39.588Z,10.39
2023-03-25T20:13:06.287Z,10.33
2023-03-25T20:15:33.259Z,10.25
2023-03-25T20:18:00.407Z,10.28
2023-03-25T20:20:27.584Z,10.31
2023-03-25T20:25:27.109Z,10.36
2023-03-25T20:27:53.805Z,10.37
2023-03-25T20:30:20.605Z,10.32
2023-03-25T20:32:48.818Z,10.24
2023-03-25T20:35:17.934Z,10.20
2023-03-25T20:37:46.419Z,10.09
2023-03-25T20:40:16.300Z,10.13
2023-03-25T20:42:44.774Z,10.11
2023-03-25T20:45:14.061Z,10.17
2023-03-25T20:47:41.836Z,10.15
2023-03-25T20:50:10.770Z,10.06
2023-03-25T20:52:38.291Z,10.08
2023-03-25T20:55:05.966Z,10.05
2023-03-25T20:57:33.196Z,10.17
2023-03-25T20:59:59.799Z,10.09
2023-03-25T21:02:27.447Z,10.09
2023-03-25T21:04:57.061Z,9.98
2023-03-25T21:07:30.642Z,10.06
2023-03-25T21:09:58.548Z,10.04
2023-03-25T21:12:36.424Z,10.04
2023-03-25T21:15:09.352Z,10.01
2023-03-25T21:17:36.042Z,10.05
2023-03-25T21:20:06.338Z,9.95
2023-03-25T21:22:33.462Z,10.03
2023-03-25T21:25:00.161Z,10.03
2023-03-25T21:27:38.164Z,10.05
2023-03-25T21:30:08.076Z,9.99
2023-03-25T21:32:35.017Z,9.97
2023-03-25T21:35:01.729Z,10.00
2023-03-25T21:40:01.430Z,10.07
2023-03-25T21:42:28.088Z,10.14
2023-03-25T21:44:54.711Z,10.10
2023-03-25T21:47:22.623Z,10.04
2023-03-25T21:49:50.519Z,10.11
2023-03-25T21:52:18.034Z,9.99
2023-03-25T21:54:44.685Z,10.03
2023-03-25T21:57:11.623Z,9.95
2023-03-25T21:59:38.334Z,9.87
2023-03-25T22:02:05.195Z,9.74
2023-03-25T22:04:33.822Z,9.68
2023-03-25T22:07:00.556Z,9.70
2023-03-25T22:09:27.672Z,9.69
2023-03-25T22:11:54.306Z,9.77
2023-03-25T22:14:21.019Z,9.70
2023-03-25T22:16:47.694Z,9.72
2023-03-25T22:19:14.355Z,9.73
2023-03-25T22:21:41.359Z,9.66
2023-03-25T22:24:09.251Z,9.80
2023-03-25T22:26:39.436Z,9.80
2023-03-25T22:29:08.193Z,9.79
2023-03-25T22:31:39.903Z,9.72
2023-03-25T22:34:12.987Z,9.68
2023-03-25T22:36:42.759Z,9.65
2023-03-25T22:39:10.641Z,9.64
2023-03-25T22:41:37.886Z,9.71
2023-03-25T22:44:04.683Z,9.64
2023-03-25T22:46:32.365Z,9.52
2023-03-25T22:48:59.227Z,9.51
2023-03-25T22:51:27.269Z,9.29
2023-03-25T22:53:54.018Z,9.25
2023-03-25T22:56:23.565Z,9.16
2023-03-25T22:58:53.754Z,9.13
2023-03-25T23:01:25.954Z,8.96
2023-03-25T23:03:53.992Z,9.02
2023-03-25T23:06:22.049Z,9.10
2023-03-25T23:08:49.531Z,9.07
2023-03-25T23:11:20.408Z,9.14
2023-03-25T23:13:50.507Z,9.03
2023-03-25T23:16:22.604Z,9.02
2023-03-25T23:18:49.818Z,8.96
2023-03-25T23:21:22.754Z,8.92
2023-03-25T23:23:52.571Z,9.02
2023-03-25T23:31:41.768Z,8.93
2023-03-25T23:34:11.791Z,8.92
2023-03-25T23:36:39.518Z,9.02
2023-03-25T23:39:08.995Z,8.98
2023-03-25T23:41:36.450Z,8.95
2023-03-25T23:44:04.198Z,8.97
2023-03-25T23:46:31.135Z,8.97
2023-03-25T23:49:02.756Z,8.97
2023-03-25T23:51:33.317Z,8.92
2023-03-25T23:54:00.195Z,9.00
2023-03-25T23:56:26.833Z,8.91
2023-03-25T23:58:53.893Z,8.94
